• Join FlightAware (Why Join?)
  • Login
  • US Flag 
Rudolph Flight #1: Arrived! 
03:27PM EST


 

Airport Tracker/Info


-or-


 

Live Flight TrackerFlight Track Log ✈ EJA396 ✈ 26-Jul-2013 ✈ KEGE - KFGX

Flight Track Log - Related Links

Times and Time Zones

All times are in EDT time to prevent confusion due to time zone crossing. See the EJA396 flight status page for this flight to view local times or setup timezone preferences in your user account.

Time Position Orientation Groundspeed Altitude Reporting Facility
EDT Latitude Longitude Course Direction KTS MPH feet Rate Location/Type
10:16AM 39.6392 -106.9372 98° East 185 213 7,400  Level Denver Center
10:17AM 39.5997 -106.9847 223° Southwest 199 229 11,100 3,360 Climbing Denver Center
10:18AM 39.6231 -107.0375 300° West 217 250 14,400 1,800 Climbing Denver Center
10:19AM 39.7031 -107.0617 347° North 296 341 14,800 900 Climbing Denver Center
10:20AM 39.9833 -106.1964 90° East  Level FlightAware Approximate
10:20AM 39.7833 -107.0322 16° North 331 381 16,300  Level Denver Center
10:21AM 39.9728 -106.0380 98° East  Level FlightAware Approximate
10:21AM 39.8283 -106.9175 63° Northeast 356 410 18,200  Level Denver Center
10:22AM 39.8761 -106.7897 64° Northeast 387 445 20,000 1,800 Climbing Denver Center
10:23AM 39.9142 -106.6158 74° East 418 481 22,400 1,440 Climbing Denver Center
10:24AM 39.9247 -106.4689 85° East 433 498 23,000 720 Climbing Denver Center
10:25AM 39.9400 -106.2736 84° East 450 518 24,000 1,440 Climbing Denver Center
10:26AM 39.9522 -106.1131 84° East 448 516 26,000 1,740 Climbing Denver Center
10:27AM 39.9619 -105.9481 86° East 455 524 27,600 1,500 Climbing Denver Center
10:28AM 39.9733 -105.7756 85° East 483 556 29,100 1,440 Climbing Denver Center
10:29AM 39.9850 -105.6036 85° East 478 550 30,600 1,560 Climbing Denver Center
10:31AM 39.9978 -105.3956 85° East 472 543 32,400 1,560 Climbing Denver Center
10:32AM 40.0089 -105.2211 85° East 480 552 33,900 1,440 Climbing Denver Center
10:33AM 40.0197 -105.0450 85° East 483 556 35,400 1,200 Climbing Denver Center
10:34AM 40.0306 -104.8683 85° East 484 557 36,500 960 Climbing Denver Center
10:35AM 40.0419 -104.6878 85° East 496 571 37,500 960 Climbing Denver Center
10:36AM 40.0508 -104.5092 86° East 492 566 38,500 960 Climbing Denver Center
10:37AM 40.0600 -104.3303 86° East 492 566 39,500 1,020 Climbing Denver Center
10:38AM 40.0706 -104.1222 86° East 474 545 40,700 720 Climbing Denver Center
10:39AM 40.0792 -103.9469 86° East 483 556 41,000 120 Climbing Denver Center
10:40AM 40.0883 -103.7717 86° East 482 555 41,000  Level Denver Center
10:41AM 40.0986 -103.6011 85° East 471 542 41,000  Level Denver Center
10:42AM 40.1056 -103.4219 87° East 490 564 41,000  Level Denver Center
10:43AM 40.1144 -103.2450 86° East 491 565 41,000  Level Denver Center
10:44AM 40.1214 -103.0686 87° East 488 562 41,000  Level Denver Center
10:45AM 40.1289 -102.8561 87° East 488 562 41,000  Level Denver Center
10:46AM 40.1353 -102.6778 87° East 491 565 41,000  Level Denver Center
10:47AM 40.1419 -102.4889 87° East 489 563 41,000  Level Denver Center
10:48AM 40.1472 -102.3186 88° East 490 564 41,000  Level Denver Center
10:49AM 40.1522 -102.1208 88° East 489 563 41,000  Level Denver Center
10:50AM 40.1569 -101.9514 88° East 489 563 41,000  Level Denver Center
10:51AM 40.1631 -101.7547 88° East 486 559 41,000  Level Denver Center
10:52AM 40.1669 -101.5850 88° East 490 564 41,000  Level Denver Center
10:53AM 40.1711 -101.3864 88° East 491 565 41,000  Level Denver Center
10:54AM 40.1756 -101.2181 88° East 489 563 41,000  Level Denver Center
10:55AM 40.1792 -101.0197 89° East 491 565 41,000  Level Denver Center
10:56AM 40.1817 -100.8494 89° East 491 565 41,000  Level Denver Center
10:58AM 40.1848 -100.6693 89° East  Level FlightAware Approximate
10:58AM 40.1878 -100.4839 89° East 489 563 41,000  Level Denver Center
11:00AM 40.1906 -100.2864 89° East 491 565 41,000  Level Denver Center
11:01AM 40.1919 -100.1178 89° East 488 562 41,000  Level Denver Center
11:02AM 40.1939 -99.9214 89° East 486 559 41,000  Level Denver Center
11:03AM 40.1953 -99.7322 89° East 486 559 41,000  Level Denver Center
11:04AM 40.1978 -99.5547 89° East 489 563 41,000  Level Denver Center
11:05AM 40.1983 -99.3861 90° East 487 560 41,000  Level Denver Center
11:06AM 40.1994 -99.1894 90° East 487 560 41,000  Level Denver Center
11:07AM 40.1994 -99.0286 90° East 486 559 41,000  Level Minneapolis Center
11:08AM 40.1994 -98.8517 90° East 488 562 41,000  Level Minneapolis Center
11:09AM 40.1997 -98.6394 90° East 488 562 41,000  Level Minneapolis Center
11:10AM 40.1986 -98.4628 90° East 488 562 41,000  Level Minneapolis Center
11:11AM 40.1972 -98.2847 91° East 491 565 41,000  Level Minneapolis Center
11:12AM 40.1978 -98.1081 90° East 489 563 41,000  Level Minneapolis Center
11:13AM 40.1958 -97.9308 91° East 489 563 41,000  Level Minneapolis Center
11:14AM 40.1947 -97.7536 90° East 489 563 41,000  Level Minneapolis Center
11:15AM 40.1919 -97.5408 91° East 489 563 41,000  Level Minneapolis Center
11:16AM 40.1900 -97.3642 91° East 487 560 41,000  Level Minneapolis Center
11:17AM 40.1883 -97.2031 91° East 491 565 41,000  Level Minneapolis Center
11:18AM 40.1853 -96.9903 91° East 491 565 41,000  Level Minneapolis Center
11:19AM 40.1819 -96.8122 91° East 492 566 41,000  Level Minneapolis Center
11:20AM 40.1786 -96.6356 91° East 489 563 41,000  Level Minneapolis Center
11:21AM 40.1750 -96.4569 91° East 491 565 41,000  Level Minneapolis Center
11:22AM 40.1714 -96.2797 91° East 492 566 41,000  Level Minneapolis Center
11:23AM 40.1664 -96.0644 92° East 494 568 41,000  Level Minneapolis Center
11:24AM 40.1628 -95.8847 91° East 496 571 41,000  Level Minneapolis Center
11:25AM 40.1586 -95.7044 92° East 497 572 41,000  Level Minneapolis Center
11:26AM 40.1544 -95.5272 92° East 494 568 41,000  Level Minneapolis Center
11:27AM 40.1486 -95.3483 92° East 494 568 41,000  Level Minneapolis Center
11:28AM 40.1428 -95.1694 92° East 494 568 41,000  Level Minneapolis Center
11:29AM 40.1372 -94.9739 92° East 496 571 41,000  Level Kansas City Center
11:31AM 40.1303 -94.7722 93° East 496 571 41,000  Level Kansas City Center
11:32AM 40.1236 -94.5992 93° East 496 571 41,000  Level Kansas City Center
11:33AM 40.1161 -94.3967 93° East 499 574 41,000  Level Kansas City Center
11:34AM 40.1092 -94.2236 93° East 497 572 41,000  Level Kansas City Center
11:35AM 40.1014 -94.0583 93° East 496 571 41,000  Level Kansas City Center
11:36AM 40.0917 -93.8433 93° East 499 574 41,000  Level Kansas City Center
11:37AM 40.0844 -93.6669 93° East 493 567 41,000  Level Kansas City Center
11:38AM 40.0764 -93.4889 93° East 495 570 41,000  Level Kansas City Center
11:39AM 40.0678 -93.3122 94° East 495 570 41,000  Level Kansas City Center
11:40AM 40.0594 -93.1353 93° East 495 570 41,000  Level Kansas City Center
11:41AM 40.0494 -92.9219 93° East 497 572 41,000  Level Kansas City Center
11:42AM 40.0394 -92.7450 94° East 499 574 41,000  Level Kansas City Center
11:43AM 40.0311 -92.5681 93° East 501 577 41,000  Level Kansas City Center
11:44AM 40.0194 -92.3558 94° East 500 575 41,000  Level Kansas City Center
11:45AM 40.0106 -92.1792 94° East 497 572 41,000  Level Kansas City Center
11:46AM 39.9997 -92.0008 94° East 499 574 41,000  Level Kansas City Center
11:47AM 39.9894 -91.8219 94° East 501 577 41,000  Level Kansas City Center
11:48AM 39.9778 -91.6436 95° East 500 575 41,000  Level Kansas City Center
11:49AM 39.9636 -91.4286 95° East 501 577 41,000  Level Kansas City Center
11:50AM 39.9531 -91.2486 94° East 502 578 41,000  Level Kansas City Center
11:51AM 39.9403 -91.0686 95° East 503 579 41,000  Level Kansas City Center
11:52AM 39.9294 -90.8939 95° East 502 578 41,000  Level Kansas City Center
11:53AM 39.9139 -90.6778 95° East 501 577 41,000  Level Kansas City Center
11:54AM 39.9017 -90.4972 95° East 503 579 41,000  Level Kansas City Center
11:55AM 39.8883 -90.3158 95° East 505 581 41,000  Level Kansas City Center
11:56AM 39.8744 -90.1344 96° East 506 582 41,000  Level Kansas City Center
11:57AM 39.8611 -89.9525 95° East 508 585 41,000  Level Kansas City Center
11:58AM 39.8467 -89.7728 96° East 506 582 41,000  Level Kansas City Center
11:59AM 39.8242 -89.5583 98° East 503 579 41,000  Level Kansas City Center
12:00PM 39.7992 -89.3803 100° East 502 578 41,000  Level Kansas City Center
12:02PM 39.7750 -89.2047 100° East 498 573 41,000  Level Kansas City Center
12:03PM 39.7508 -89.0278 100° East 499 574 41,000  Level Kansas City Center
12:04PM 39.7267 -88.8508 100° East 500 575 41,000  Level Kansas City Center
12:05PM 39.6956 -88.6400 101° East 497 572 41,000  Level Kansas City Center
12:06PM 39.6725 -88.4631 100° East 498 573 41,000  Level Kansas City Center
12:07PM 39.6456 -88.2675 100° East 500 575 41,000  Level Kansas City Center
12:08PM 39.6142 -88.1189 105° East 499 574 41,000  Level Indianapolis Center
12:09PM 39.5722 -87.9472 108° East 500 575 41,000  Level Indianapolis Center
12:10PM 39.5319 -87.7767 107° East 497 572 41,000  Level Indianapolis Center
12:11PM 39.4908 -87.6064 107° East 499 574 41,000  Level Indianapolis Center
12:12PM 39.4431 -87.4031 107° East 498 573 41,000  Level Indianapolis Center
12:13PM 39.4014 -87.2358 108° East 493 567 41,000 -540 Level Indianapolis Center
12:14PM 39.3614 -87.0678 107° East 494 568 40,000 -1,020 Descending Indianapolis Center
12:15PM 39.3197 -86.8986 108° East 496 571 38,900 -1,260 Descending Indianapolis Center
12:17PM 39.2236 -86.5094 108° East 532 612 36,100 -1,380 Descending Indianapolis Center
12:18PM 39.1808 -86.3367 108° East 518 596 34,800 -1,260 Descending Indianapolis Center
12:19PM 39.1372 -86.1642 108° East 513 590 33,500 -900 Descending Indianapolis Center
12:20PM 39.0939 -85.9936 108° East 508 585 33,000 -300 Descending Indianapolis Center
12:21PM 39.0494 -85.8208 108° East 512 589 33,000  Level Indianapolis Center
12:22PM 38.9953 -85.6136 109° East 514 592 33,000 -360 Level Indianapolis Center
12:23PM 38.9514 -85.4417 108° East 509 586 32,300 -1,500 Descending Indianapolis Center
12:24PM 38.9103 -85.2822 108° East 480 552 29,900 -2,340 Descending Indianapolis Center
12:25PM 38.8650 -85.1142 109° East 497 572 27,500 -2,340 Descending Indianapolis Center
12:26PM 38.8225 -84.9542 109° East 479 551 25,100 -2,580 Descending Indianapolis Center
12:27PM 38.7733 -84.7697 109° East 460 529 22,200 -2,400 Descending Indianapolis Center
12:28PM 38.7356 -84.6231 108° East 437 503 20,200 -1,980 Descending Indianapolis Center
12:29PM 38.6956 -84.4783 109° East 428 493 18,200 -1,800 Descending Indianapolis Center
12:30PM 38.6581 -84.3403 109° East 411 473 16,500 -1,860 Descending Indianapolis Center
12:31PM 38.6281 -84.1989 105° East 387 445 14,400 -1,920 Descending Indianapolis Center
12:32PM 38.6044 -84.0717 103° East 370 426 12,600 -1,860 Descending Indianapolis Center
12:33PM 38.5847 -83.9758 105° East 286 329 10,600 -1,920 Descending Indianapolis Center
12:35PM 38.5478 -83.9275 134° Southeast 192 221 8,700 -1,860 Descending Indianapolis Center